sensor_id;sensor_type;location;lat;lon;timestamp;P1;durP1;ratioP1;P2;durP2;ratioP2
73382;SDS011;61600;48.126;11.542;2023-09-12T00:01:40;11.02;;;7.35;;
73382;SDS011;61600;48.126;11.542;2023-09-12T00:04:06;10.27;;;7.22;;
73382;SDS011;61600;48.126;11.542;2023-09-12T00:06:32;11.40;;;7.28;;
73382;SDS011;61600;48.126;11.542;2023-09-12T00:08:58;10.98;;;7.53;;
73382;SDS011;61600;48.126;11.542;2023-09-12T00:11:23;9.40;;;7.43;;
73382;SDS011;61600;48.126;11.542;2023-09-12T00:13:51;11.00;;;7.53;;
73382;SDS011;61600;48.126;11.542;2023-09-12T00:18:42;11.93;;;7.43;;
73382;SDS011;61600;48.126;11.542;2023-09-12T00:21:08;10.10;;;7.55;;
73382;SDS011;61600;48.126;11.542;2023-09-12T00:23:34;9.68;;;6.93;;
73382;SDS011;61600;48.126;11.542;2023-09-12T00:26:00;14.02;;;7.65;;
73382;SDS011;61600;48.126;11.542;2023-09-12T00:28:26;10.48;;;7.13;;
73382;SDS011;61600;48.126;11.542;2023-09-12T00:30:52;12.95;;;7.30;;
73382;SDS011;61600;48.126;11.542;2023-09-12T00:33:18;12.80;;;8.38;;
73382;SDS011;61600;48.126;11.542;2023-09-12T00:35:44;12.13;;;7.95;;
73382;SDS011;61600;48.126;11.542;2023-09-12T00:38:10;12.20;;;7.60;;
73382;SDS011;61600;48.126;11.542;2023-09-12T00:40:36;13.68;;;7.32;;
73382;SDS011;61600;48.126;11.542;2023-09-12T00:43:03;15.23;;;8.27;;
73382;SDS011;61600;48.126;11.542;2023-09-12T00:45:29;15.02;;;8.68;;
73382;SDS011;61600;48.126;11.542;2023-09-12T00:47:55;13.80;;;9.00;;
73382;SDS011;61600;48.126;11.542;2023-09-12T00:50:23;13.73;;;8.30;;
73382;SDS011;61600;48.126;11.542;2023-09-12T00:52:50;12.23;;;7.85;;
73382;SDS011;61600;48.126;11.542;2023-09-12T00:55:20;13.93;;;8.63;;
73382;SDS011;61600;48.126;11.542;2023-09-12T00:57:46;15.52;;;8.25;;
73382;SDS011;61600;48.126;11.542;2023-09-12T01:00:13;12.70;;;8.32;;
73382;SDS011;61600;48.126;11.542;2023-09-12T01:02:39;13.15;;;7.93;;
73382;SDS011;61600;48.126;11.542;2023-09-12T01:05:07;12.13;;;7.53;;
73382;SDS011;61600;48.126;11.542;2023-09-12T01:07:35;12.15;;;7.70;;
73382;SDS011;61600;48.126;11.542;2023-09-12T01:10:02;14.23;;;7.93;;
73382;SDS011;61600;48.126;11.542;2023-09-12T01:12:29;11.07;;;7.57;;
73382;SDS011;61600;48.126;11.542;2023-09-12T01:14:55;12.63;;;6.95;;
73382;SDS011;61600;48.126;11.542;2023-09-12T01:17:21;9.73;;;6.25;;
73382;SDS011;61600;48.126;11.542;2023-09-12T01:19:48;12.82;;;7.53;;
73382;SDS011;61600;48.126;11.542;2023-09-12T01:27:48;10.43;;;6.55;;
73382;SDS011;61600;48.126;11.542;2023-09-12T01:30:17;10.65;;;6.93;;
73382;SDS011;61600;48.126;11.542;2023-09-12T01:32:45;11.55;;;6.97;;
73382;SDS011;61600;48.126;11.542;2023-09-12T01:35:11;9.80;;;6.70;;
73382;SDS011;61600;48.126;11.542;2023-09-12T01:37:39;10.63;;;7.05;;
73382;SDS011;61600;48.126;11.542;2023-09-12T01:40:05;10.93;;;7.43;;
73382;SDS011;61600;48.126;11.542;2023-09-12T01:42:42;9.57;;;6.97;;
73382;SDS011;61600;48.126;11.542;2023-09-12T01:45:12;9.15;;;6.80;;
73382;SDS011;61600;48.126;11.542;2023-09-12T01:47:41;9.30;;;6.72;;
73382;SDS011;61600;48.126;11.542;2023-09-12T01:50:11;10.90;;;7.18;;
73382;SDS011;61600;48.126;11.542;2023-09-12T01:52:38;9.88;;;6.85;;
73382;SDS011;61600;48.126;11.542;2023-09-12T01:55:06;11.65;;;6.82;;
73382;SDS011;61600;48.126;11.542;2023-09-12T01:57:35;9.88;;;6.90;;
73382;SDS011;61600;48.126;11.542;2023-09-12T02:00:02;9.27;;;6.00;;
73382;SDS011;61600;48.126;11.542;2023-09-12T02:02:28;11.30;;;7.40;;
73382;SDS011;61600;48.126;11.542;2023-09-12T02:05:07;11.27;;;7.50;;
73382;SDS011;61600;48.126;11.542;2023-09-12T02:07:38;10.93;;;7.20;;
73382;SDS011;61600;48.126;11.542;2023-09-12T02:10:04;11.07;;;7.35;;
73382;SDS011;61600;48.126;11.542;2023-09-12T02:12:31;9.80;;;7.13;;
73382;SDS011;61600;48.126;11.542;2023-09-12T02:14:57;10.60;;;7.22;;
73382;SDS011;61600;48.126;11.542;2023-09-12T02:17:23;14.20;;;7.45;;
73382;SDS011;61600;48.126;11.542;2023-09-12T02:19:48;13.18;;;7.75;;
73382;SDS011;61600;48.126;11.542;2023-09-12T02:22:14;10.27;;;7.30;;
73382;SDS011;61600;48.126;11.542;2023-09-12T02:24:40;10.43;;;6.90;;
73382;SDS011;61600;48.126;11.542;2023-09-12T02:27:06;10.50;;;7.80;;
73382;SDS011;61600;48.126;11.542;2023-09-12T02:29:31;12.63;;;7.88;;
73382;SDS011;61600;48.126;11.542;2023-09-12T02:32:00;10.82;;;7.60;;
73382;SDS011;61600;48.126;11.542;2023-09-12T02:34:45;12.27;;;7.47;;
73382;SDS011;61600;48.126;11.542;2023-09-12T02:37:11;9.90;;;6.78;;
73382;SDS011;61600;48.126;11.542;2023-09-12T02:39:36;10.77;;;6.93;;
73382;SDS011;61600;48.126;11.542;2023-09-12T02:42:02;10.50;;;7.60;;
73382;SDS011;61600;48.126;11.542;2023-09-12T02:44:28;13.13;;;7.22;;
73382;SDS011;61600;48.126;11.542;2023-09-12T02:46:54;9.73;;;7.07;;
73382;SDS011;61600;48.126;11.542;2023-09-12T02:49:19;14.38;;;7.22;;
73382;SDS011;61600;48.126;11.542;2023-09-12T02:51:45;9.38;;;7.05;;
73382;SDS011;61600;48.126;11.542;2023-09-12T02:54:11;14.35;;;7.20;;
73382;SDS011;61600;48.126;11.542;2023-09-12T02:56:37;9.73;;;6.60;;
73382;SDS011;61600;48.126;11.542;2023-09-12T02:59:02;9.38;;;6.68;;
73382;SDS011;61600;48.126;11.542;2023-09-12T03:01:29;9.57;;;6.82;;
73382;SDS011;61600;48.126;11.542;2023-09-12T03:03:55;15.60;;;7.30;;
73382;SDS011;61600;48.126;11.542;2023-09-12T03:06:20;12.55;;;7.15;;
73382;SDS011;61600;48.126;11.542;2023-09-12T03:08:47;11.43;;;6.72;;
73382;SDS011;61600;48.126;11.542;2023-09-12T03:11:13;11.35;;;6.85;;
73382;SDS011;61600;48.126;11.542;2023-09-12T03:13:39;9.13;;;7.03;;
73382;SDS011;61600;48.126;11.542;2023-09-12T03:16:10;9.45;;;6.95;;
73382;SDS011;61600;48.126;11.542;2023-09-12T03:18:36;9.63;;;6.93;;
73382;SDS011;61600;48.126;11.542;2023-09-12T03:21:02;10.60;;;6.53;;
73382;SDS011;61600;48.126;11.542;2023-09-12T03:23:28;9.25;;;6.95;;
73382;SDS011;61600;48.126;11.542;2023-09-12T03:25:54;12.60;;;7.07;;
73382;SDS011;61600;48.126;11.542;2023-09-12T03:28:20;11.23;;;6.72;;
73382;SDS011;61600;48.126;11.542;2023-09-12T03:30:46;9.15;;;6.80;;
73382;SDS011;61600;48.126;11.542;2023-09-12T03:33:11;12.88;;;7.22;;
73382;SDS011;61600;48.126;11.542;2023-09-12T03:35:37;12.73;;;7.57;;
73382;SDS011;61600;48.126;11.542;2023-09-12T03:38:03;13.45;;;7.75;;
73382;SDS011;61600;48.126;11.542;2023-09-12T03:40:29;12.73;;;7.43;;
73382;SDS011;61600;48.126;11.542;2023-09-12T03:42:56;13.10;;;7.05;;
73382;SDS011;61600;48.126;11.542;2023-09-12T03:45:22;10.25;;;6.72;;
73382;SDS011;61600;48.126;11.542;2023-09-12T03:47:48;12.07;;;6.95;;
73382;SDS011;61600;48.126;11.542;2023-09-12T03:50:14;13.00;;;7.07;;
73382;SDS011;61600;48.126;11.542;2023-09-12T03:52:39;11.00;;;6.68;;
73382;SDS011;61600;48.126;11.542;2023-09-12T03:55:06;13.70;;;7.55;;
73382;SDS011;61600;48.126;11.542;2023-09-12T03:57:31;11.95;;;7.55;;
73382;SDS011;61600;48.126;11.542;2023-09-12T03:59:57;10.23;;;6.88;;
73382;SDS011;61600;48.126;11.542;2023-09-12T04:02:23;10.68;;;7.00;;
73382;SDS011;61600;48.126;11.542;2023-09-12T04:04:49;16.58;;;7.80;;
73382;SDS011;61600;48.126;11.542;2023-09-12T04:07:15;11.85;;;7.18;;
73382;SDS011;61600;48.126;11.542;2023-09-12T04:09:40;10.02;;;7.07;;
73382;SDS011;61600;48.126;11.542;2023-09-12T04:12:06;14.30;;;7.47;;
73382;SDS011;61600;48.126;11.542;2023-09-12T04:14:34;10.68;;;7.15;;
73382;SDS011;61600;48.126;11.542;2023-09-12T04:19:26;10.07;;;6.93;;
73382;SDS011;61600;48.126;11.542;2023-09-12T04:21:51;13.27;;;7.60;;
73382;SDS011;61600;48.126;11.542;2023-09-12T04:24:17;12.32;;;7.72;;
73382;SDS011;61600;48.126;11.542;2023-09-12T04:26:43;13.07;;;7.60;;
73382;SDS011;61600;48.126;11.542;2023-09-12T04:29:09;12.00;;;7.00;;
73382;SDS011;61600;48.126;11.542;2023-09-12T04:31:35;14.63;;;7.97;;
73382;SDS011;61600;48.126;11.542;2023-09-12T04:34:03;11.68;;;7.15;;
73382;SDS011;61600;48.126;11.542;2023-09-12T04:36:29;14.10;;;7.47;;
73382;SDS011;61600;48.126;11.542;2023-09-12T04:38:54;13.80;;;8.07;;
73382;SDS011;61600;48.126;11.542;2023-09-12T04:41:20;11.82;;;7.28;;
73382;SDS011;61600;48.126;11.542;2023-09-12T04:43:46;11.32;;;8.10;;
73382;SDS011;61600;48.126;11.542;2023-09-12T04:46:12;10.88;;;7.18;;
73382;SDS011;61600;48.126;11.542;2023-09-12T04:48:38;13.02;;;8.00;;
73382;SDS011;61600;48.126;11.542;2023-09-12T04:51:04;12.45;;;7.47;;
73382;SDS011;61600;48.126;11.542;2023-09-12T04:53:30;11.45;;;7.60;;
73382;SDS011;61600;48.126;11.542;2023-09-12T04:56:00;12.40;;;7.35;;
73382;SDS011;61600;48.126;11.542;2023-09-12T04:58:29;11.27;;;7.80;;
73382;SDS011;61600;48.126;11.542;2023-09-12T05:00:55;15.50;;;6.63;;
73382;SDS011;61600;48.126;11.542;2023-09-12T05:03:22;13.27;;;7.40;;
73382;SDS011;61600;48.126;11.542;2023-09-12T05:05:49;15.07;;;8.85;;
73382;SDS011;61600;48.126;11.542;2023-09-12T05:08:15;14.48;;;8.60;;
73382;SDS011;61600;48.126;11.542;2023-09-12T05:10:43;11.95;;;7.75;;
73382;SDS011;61600;48.126;11.542;2023-09-12T05:13:09;12.13;;;7.80;;
73382;SDS011;61600;48.126;11.542;2023-09-12T05:15:35;12.45;;;7.32;;
73382;SDS011;61600;48.126;11.542;2023-09-12T05:18:02;11.75;;;8.00;;
73382;SDS011;61600;48.126;11.542;2023-09-12T05:20:28;13.05;;;7.70;;
73382;SDS011;61600;48.126;11.542;2023-09-12T05:22:53;12.80;;;7.97;;
73382;SDS011;61600;48.126;11.542;2023-09-12T05:25:19;14.02;;;8.30;;
73382;SDS011;61600;48.126;11.542;2023-09-12T05:27:45;10.52;;;7.07;;
73382;SDS011;61600;48.126;11.542;2023-09-12T05:30:11;11.82;;;7.50;;
73382;SDS011;61600;48.126;11.542;2023-09-12T05:32:37;12.07;;;7.70;;
73382;SDS011;61600;48.126;11.542;2023-09-12T05:35:03;12.00;;;7.45;;
73382;SDS011;61600;48.126;11.542;2023-09-12T05:37:29;13.48;;;7.45;;
73382;SDS011;61600;48.126;11.542;2023-09-12T05:39:55;13.32;;;7.72;;
73382;SDS011;61600;48.126;11.542;2023-09-12T05:42:21;10.38;;;6.93;;
73382;SDS011;61600;48.126;11.542;2023-09-12T05:44:48;12.68;;;7.20;;
73382;SDS011;61600;48.126;11.542;2023-09-12T05:47:15;11.02;;;7.32;;
73382;SDS011;61600;48.126;11.542;2023-09-12T05:52:08;13.00;;;7.15;;
73382;SDS011;61600;48.126;11.542;2023-09-12T05:54:34;14.77;;;8.10;;
73382;SDS011;61600;48.126;11.542;2023-09-12T05:56:59;12.75;;;8.88;;
73382;SDS011;61600;48.126;11.542;2023-09-12T05:59:26;11.65;;;7.22;;
73382;SDS011;61600;48.126;11.542;2023-09-12T06:01:51;12.05;;;7.50;;
73382;SDS011;61600;48.126;11.542;2023-09-12T06:04:17;11.68;;;7.15;;
73382;SDS011;61600;48.126;11.542;2023-09-12T06:06:43;11.38;;;7.03;;
73382;SDS011;61600;48.126;11.542;2023-09-12T06:09:11;11.63;;;7.20;;
73382;SDS011;61600;48.126;11.542;2023-09-12T06:11:37;12.18;;;8.02;;
73382;SDS011;61600;48.126;11.542;2023-09-12T06:14:03;12.20;;;8.65;;
73382;SDS011;61600;48.126;11.542;2023-09-12T06:16:28;11.20;;;7.78;;
73382;SDS011;61600;48.126;11.542;2023-09-12T06:18:55;12.13;;;7.72;;
73382;SDS011;61600;48.126;11.542;2023-09-12T06:21:21;12.85;;;7.90;;
73382;SDS011;61600;48.126;11.542;2023-09-12T06:23:47;13.10;;;8.30;;
73382;SDS011;61600;48.126;11.542;2023-09-12T06:26:14;12.13;;;8.05;;
73382;SDS011;61600;48.126;11.542;2023-09-12T06:28:39;12.75;;;7.93;;
73382;SDS011;61600;48.126;11.542;2023-09-12T06:31:08;10.73;;;7.25;;
73382;SDS011;61600;48.126;11.542;2023-09-12T06:33:35;11.45;;;7.30;;
73382;SDS011;61600;48.126;11.542;2023-09-12T06:36:00;9.70;;;7.00;;
73382;SDS011;61600;48.126;11.542;2023-09-12T06:38:26;13.65;;;7.57;;
73382;SDS011;61600;48.126;11.542;2023-09-12T06:40:52;12.35;;;7.70;;
73382;SDS011;61600;48.126;11.542;2023-09-12T06:43:18;11.70;;;7.25;;
73382;SDS011;61600;48.126;11.542;2023-09-12T06:45:44;13.07;;;7.45;;
73382;SDS011;61600;48.126;11.542;2023-09-12T06:50:36;11.25;;;6.88;;
73382;SDS011;61600;48.126;11.542;2023-09-12T06:53:04;11.77;;;7.15;;
73382;SDS011;61600;48.126;11.542;2023-09-12T06:55:32;10.38;;;7.20;;
73382;SDS011;61600;48.126;11.542;2023-09-12T06:57:58;10.00;;;6.88;;
73382;SDS011;61600;48.126;11.542;2023-09-12T07:00:24;11.20;;;6.60;;
73382;SDS011;61600;48.126;11.542;2023-09-12T07:02:52;10.48;;;7.43;;
73382;SDS011;61600;48.126;11.542;2023-09-12T07:05:17;9.65;;;7.15;;
73382;SDS011;61600;48.126;11.542;2023-09-12T07:07:43;11.00;;;6.65;;
73382;SDS011;61600;48.126;11.542;2023-09-12T07:10:09;10.52;;;7.07;;
73382;SDS011;61600;48.126;11.542;2023-09-12T07:12:35;11.52;;;7.18;;
73382;SDS011;61600;48.126;11.542;2023-09-12T07:15:00;9.65;;;6.32;;
73382;SDS011;61600;48.126;11.542;2023-09-12T07:17:29;11.48;;;7.05;;
73382;SDS011;61600;48.126;11.542;2023-09-12T07:19:55;9.75;;;6.63;;
73382;SDS011;61600;48.126;11.542;2023-09-12T07:22:21;9.43;;;6.93;;
73382;SDS011;61600;48.126;11.542;2023-09-12T07:24:47;11.98;;;7.15;;
73382;SDS011;61600;48.126;11.542;2023-09-12T07:27:13;11.00;;;6.60;;
73382;SDS011;61600;48.126;11.542;2023-09-12T07:29:38;9.20;;;6.65;;
73382;SDS011;61600;48.126;11.542;2023-09-12T07:32:04;11.02;;;7.03;;
73382;SDS011;61600;48.126;11.542;2023-09-12T07:34:30;8.35;;;5.78;;
73382;SDS011;61600;48.126;11.542;2023-09-12T07:36:56;12.55;;;6.90;;
73382;SDS011;61600;48.126;11.542;2023-09-12T07:39:21;8.68;;;6.25;;
73382;SDS011;61600;48.126;11.542;2023-09-12T07:41:47;7.38;;;5.88;;
73382;SDS011;61600;48.126;11.542;2023-09-12T07:44:13;11.68;;;6.35;;
73382;SDS011;61600;48.126;11.542;2023-09-12T07:46:41;9.52;;;6.18;;
73382;SDS011;61600;48.126;11.542;2023-09-12T07:49:07;9.43;;;5.97;;
73382;SDS011;61600;48.126;11.542;2023-09-12T07:51:34;7.88;;;6.25;;
73382;SDS011;61600;48.126;11.542;2023-09-12T07:54:01;12.38;;;6.20;;
73382;SDS011;61600;48.126;11.542;2023-09-12T07:56:27;9.60;;;6.25;;
73382;SDS011;61600;48.126;11.542;2023-09-12T07:58:53;9.60;;;6.80;;
73382;SDS011;61600;48.126;11.542;2023-09-12T08:01:20;9.50;;;6.55;;
73382;SDS011;61600;48.126;11.542;2023-09-12T08:03:46;10.35;;;6.28;;
73382;SDS011;61600;48.126;11.542;2023-09-12T08:06:12;11.00;;;6.35;;
73382;SDS011;61600;48.126;11.542;2023-09-12T08:08:38;9.43;;;6.43;;
73382;SDS011;61600;48.126;11.542;2023-09-12T08:11:04;10.73;;;7.03;;
73382;SDS011;61600;48.126;11.542;2023-09-12T08:13:30;10.40;;;6.40;;
73382;SDS011;61600;48.126;11.542;2023-09-12T08:15:56;8.88;;;6.50;;
73382;SDS011;61600;48.126;11.542;2023-09-12T08:18:26;8.48;;;5.63;;
73382;SDS011;61600;48.126;11.542;2023-09-12T08:20:54;8.70;;;5.93;;
73382;SDS011;61600;48.126;11.542;2023-09-12T08:23:20;10.05;;;6.47;;
73382;SDS011;61600;48.126;11.542;2023-09-12T08:25:46;12.25;;;6.45;;
73382;SDS011;61600;48.126;11.542;2023-09-12T08:28:11;7.75;;;5.95;;
73382;SDS011;61600;48.126;11.542;2023-09-12T08:30:37;8.60;;;6.30;;
73382;SDS011;61600;48.126;11.542;2023-09-12T08:33:03;8.15;;;6.07;;
73382;SDS011;61600;48.126;11.542;2023-09-12T08:35:30;9.18;;;6.18;;
73382;SDS011;61600;48.126;11.542;2023-09-12T08:37:56;11.20;;;6.38;;
73382;SDS011;61600;48.126;11.542;2023-09-12T08:40:22;9.88;;;6.75;;
73382;SDS011;61600;48.126;11.542;2023-09-12T08:42:49;11.68;;;7.05;;
73382;SDS011;61600;48.126;11.542;2023-09-12T08:45:17;9.00;;;7.07;;
73382;SDS011;61600;48.126;11.542;2023-09-12T08:47:45;9.13;;;6.50;;
73382;SDS011;61600;48.126;11.542;2023-09-12T08:50:14;10.90;;;6.32;;
73382;SDS011;61600;48.126;11.542;2023-09-12T08:52:42;11.98;;;6.40;;
73382;SDS011;61600;48.126;11.542;2023-09-12T08:55:09;11.18;;;6.35;;
73382;SDS011;61600;48.126;11.542;2023-09-12T08:57:35;7.03;;;5.75;;
73382;SDS011;61600;48.126;11.542;2023-09-12T09:00:04;9.18;;;5.93;;
73382;SDS011;61600;48.126;11.542;2023-09-12T09:02:32;7.93;;;6.07;;
73382;SDS011;61600;48.126;11.542;2023-09-12T09:05:00;8.82;;;6.38;;
73382;SDS011;61600;48.126;11.542;2023-09-12T09:07:34;9.23;;;6.03;;
73382;SDS011;61600;48.126;11.542;2023-09-12T09:10:02;13.48;;;6.30;;
73382;SDS011;61600;48.126;11.542;2023-09-12T09:12:32;9.25;;;6.40;;
73382;SDS011;61600;48.126;11.542;2023-09-12T09:14:58;10.63;;;6.65;;
73382;SDS011;61600;48.126;11.542;2023-09-12T09:17:24;8.63;;;6.25;;
73382;SDS011;61600;48.126;11.542;2023-09-12T09:19:49;8.70;;;6.95;;
73382;SDS011;61600;48.126;11.542;2023-09-12T09:22:15;9.55;;;6.20;;
73382;SDS011;61600;48.126;11.542;2023-09-12T09:24:41;14.60;;;6.43;;
73382;SDS011;61600;48.126;11.542;2023-09-12T09:27:07;13.07;;;6.38;;
73382;SDS011;61600;48.126;11.542;2023-09-12T09:29:45;9.95;;;6.47;;
73382;SDS011;61600;48.126;11.542;2023-09-12T09:32:17;10.05;;;6.30;;
73382;SDS011;61600;48.126;11.542;2023-09-12T09:34:44;8.75;;;6.10;;
73382;SDS011;61600;48.126;11.542;2023-09-12T09:39:35;8.98;;;6.00;;
73382;SDS011;61600;48.126;11.542;2023-09-12T09:42:01;9.55;;;6.32;;
73382;SDS011;61600;48.126;11.542;2023-09-12T09:44:28;8.52;;;5.75;;
73382;SDS011;61600;48.126;11.542;2023-09-12T09:47:00;8.55;;;5.70;;
73382;SDS011;61600;48.126;11.542;2023-09-12T09:49:28;8.32;;;5.88;;
73382;SDS011;61600;48.126;11.542;2023-09-12T09:51:56;8.60;;;5.75;;
73382;SDS011;61600;48.126;11.542;2023-09-12T09:54:26;12.35;;;6.85;;
73382;SDS011;61600;48.126;11.542;2023-09-12T09:56:53;9.52;;;6.15;;
73382;SDS011;61600;48.126;11.542;2023-09-12T09:59:22;9.80;;;6.22;;
73382;SDS011;61600;48.126;11.542;2023-09-12T10:01:49;9.10;;;6.28;;
73382;SDS011;61600;48.126;11.542;2023-09-12T10:04:17;10.07;;;6.47;;
73382;SDS011;61600;48.126;11.542;2023-09-12T10:06:44;16.10;;;6.32;;
73382;SDS011;61600;48.126;11.542;2023-09-12T10:09:11;8.02;;;6.30;;
73382;SDS011;61600;48.126;11.542;2023-09-12T10:11:39;8.60;;;5.72;;
73382;SDS011;61600;48.126;11.542;2023-09-12T10:14:06;12.43;;;6.25;;
73382;SDS011;61600;48.126;11.542;2023-09-12T10:16:33;9.82;;;5.97;;
73382;SDS011;61600;48.126;11.542;2023-09-12T10:19:15;9.63;;;6.05;;
73382;SDS011;61600;48.126;11.542;2023-09-12T10:21:46;7.35;;;5.07;;
73382;SDS011;61600;48.126;11.542;2023-09-12T10:26:44;8.32;;;5.60;;
73382;SDS011;61600;48.126;11.542;2023-09-12T10:29:14;11.38;;;5.80;;
73382;SDS011;61600;48.126;11.542;2023-09-12T10:31:41;8.35;;;5.35;;
73382;SDS011;61600;48.126;11.542;2023-09-12T10:34:07;8.90;;;5.05;;
73382;SDS011;61600;48.126;11.542;2023-09-12T10:36:39;6.63;;;5.15;;
73382;SDS011;61600;48.126;11.542;2023-09-12T10:39:07;10.13;;;5.78;;
73382;SDS011;61600;48.126;11.542;2023-09-12T10:41:38;10.95;;;6.05;;
73382;SDS011;61600;48.126;11.542;2023-09-12T10:44:11;6.63;;;5.07;;
73382;SDS011;61600;48.126;11.542;2023-09-12T10:46:41;6.95;;;5.05;;
73382;SDS011;61600;48.126;11.542;2023-09-12T10:49:10;12.30;;;5.68;;
73382;SDS011;61600;48.126;11.542;2023-09-12T10:54:06;7.32;;;5.22;;
73382;SDS011;61600;48.126;11.542;2023-09-12T10:56:34;9.27;;;5.65;;
73382;SDS011;61600;48.126;11.542;2023-09-12T11:01:32;7.75;;;5.47;;
73382;SDS011;61600;48.126;11.542;2023-09-12T11:06:44;8.93;;;5.45;;
73382;SDS011;61600;48.126;11.542;2023-09-12T11:09:17;10.30;;;5.78;;
73382;SDS011;61600;48.126;11.542;2023-09-12T11:11:47;7.65;;;5.45;;
73382;SDS011;61600;48.126;11.542;2023-09-12T11:14:17;8.40;;;5.18;;
73382;SDS011;61600;48.126;11.542;2023-09-12T11:16:43;7.97;;;5.22;;
73382;SDS011;61600;48.126;11.542;2023-09-12T11:21:44;9.30;;;5.55;;
73382;SDS011;61600;48.126;11.542;2023-09-12T11:24:12;11.98;;;5.20;;
73382;SDS011;61600;48.126;11.542;2023-09-12T11:27:11;7.88;;;4.82;;
73382;SDS011;61600;48.126;11.542;2023-09-12T11:29:37;5.80;;;4.90;;
73382;SDS011;61600;48.126;11.542;2023-09-12T11:32:04;9.75;;;5.47;;
73382;SDS011;61600;48.126;11.542;2023-09-12T11:37:07;7.93;;;4.97;;
73382;SDS011;61600;48.126;11.542;2023-09-12T11:39:34;10.27;;;5.10;;
73382;SDS011;61600;48.126;11.542;2023-09-12T11:42:02;11.38;;;5.45;;
73382;SDS011;61600;48.126;11.542;2023-09-12T11:44:29;9.50;;;5.10;;
73382;SDS011;61600;48.126;11.542;2023-09-12T11:47:01;8.18;;;5.20;;
73382;SDS011;61600;48.126;11.542;2023-09-12T11:49:38;6.80;;;5.00;;
73382;SDS011;61600;48.126;11.542;2023-09-12T11:52:12;7.90;;;5.20;;
73382;SDS011;61600;48.126;11.542;2023-09-12T11:54:40;7.03;;;5.00;;
73382;SDS011;61600;48.126;11.542;2023-09-12T11:57:07;7.07;;;4.95;;
73382;SDS011;61600;48.126;11.542;2023-09-12T11:59:42;6.25;;;4.70;;
73382;SDS011;61600;48.126;11.542;2023-09-12T12:02:17;6.90;;;5.05;;
73382;SDS011;61600;48.126;11.542;2023-09-12T12:04:44;8.02;;;5.30;;
73382;SDS011;61600;48.126;11.542;2023-09-12T12:09:36;9.55;;;5.30;;
73382;SDS011;61600;48.126;11.542;2023-09-12T12:14:38;8.20;;;4.90;;
73382;SDS011;61600;48.126;11.542;2023-09-12T12:17:11;8.27;;;5.30;;
73382;SDS011;61600;48.126;11.542;2023-09-12T12:19:38;7.35;;;4.75;;
73382;SDS011;61600;48.126;11.542;2023-09-12T12:22:05;6.78;;;4.97;;
73382;SDS011;61600;48.126;11.542;2023-09-12T12:24:38;7.78;;;5.40;;
73382;SDS011;61600;48.126;11.542;2023-09-12T12:27:05;8.50;;;5.32;;
73382;SDS011;61600;48.126;11.542;2023-09-12T12:29:30;10.35;;;5.13;;
73382;SDS011;61600;48.126;11.542;2023-09-12T12:32:01;7.03;;;4.90;;
73382;SDS011;61600;48.126;11.542;2023-09-12T12:34:28;10.55;;;5.05;;
73382;SDS011;61600;48.126;11.542;2023-09-12T12:36:54;6.55;;;4.90;;
73382;SDS011;61600;48.126;11.542;2023-09-12T12:39:20;8.88;;;5.05;;
73382;SDS011;61600;48.126;11.542;2023-09-12T12:41:47;7.82;;;5.40;;
73382;SDS011;61600;48.126;11.542;2023-09-12T12:44:13;9.07;;;5.13;;
73382;SDS011;61600;48.126;11.542;2023-09-12T12:46:47;9.25;;;5.50;;
73382;SDS011;61600;48.126;11.542;2023-09-12T12:49:20;7.95;;;5.10;;
73382;SDS011;61600;48.126;11.542;2023-09-12T12:51:48;6.40;;;4.70;;
73382;SDS011;61600;48.126;11.542;2023-09-12T12:54:14;6.28;;;4.65;;
73382;SDS011;61600;48.126;11.542;2023-09-12T12:56:40;7.63;;;4.75;;
73382;SDS011;61600;48.126;11.542;2023-09-12T12:59:08;7.45;;;4.53;;
73382;SDS011;61600;48.126;11.542;2023-09-12T13:01:36;6.40;;;4.78;;
73382;SDS011;61600;48.126;11.542;2023-09-12T13:04:06;7.30;;;4.60;;
73382;SDS011;61600;48.126;11.542;2023-09-12T13:06:33;9.63;;;5.20;;
73382;SDS011;61600;48.126;11.542;2023-09-12T13:09:03;6.47;;;4.43;;
73382;SDS011;61600;48.126;11.542;2023-09-12T13:11:31;6.50;;;4.65;;
73382;SDS011;61600;48.126;11.542;2023-09-12T13:14:00;6.68;;;5.00;;
73382;SDS011;61600;48.126;11.542;2023-09-12T13:16:27;5.43;;;4.28;;
73382;SDS011;61600;48.126;11.542;2023-09-12T13:18:54;5.82;;;3.50;;
73382;SDS011;61600;48.126;11.542;2023-09-12T13:21:19;4.75;;;3.42;;
73382;SDS011;61600;48.126;11.542;2023-09-12T13:23:45;5.45;;;3.50;;
73382;SDS011;61600;48.126;11.542;2023-09-12T13:26:11;5.32;;;3.95;;
73382;SDS011;61600;48.126;11.542;2023-09-12T13:28:38;7.15;;;4.40;;
73382;SDS011;61600;48.126;11.542;2023-09-12T13:31:03;5.68;;;4.00;;
73382;SDS011;61600;48.126;11.542;2023-09-12T13:33:29;5.70;;;4.25;;
73382;SDS011;61600;48.126;11.542;2023-09-12T13:35:55;7.53;;;4.80;;
73382;SDS011;61600;48.126;11.542;2023-09-12T13:38:21;10.27;;;4.72;;
73382;SDS011;61600;48.126;11.542;2023-09-12T13:40:48;7.10;;;4.53;;
73382;SDS011;61600;48.126;11.542;2023-09-12T13:43:15;5.82;;;4.32;;
73382;SDS011;61600;48.126;11.542;2023-09-12T13:45:41;6.75;;;4.72;;
73382;SDS011;61600;48.126;11.542;2023-09-12T13:48:07;7.05;;;4.63;;
73382;SDS011;61600;48.126;11.542;2023-09-12T13:50:33;8.23;;;4.80;;
73382;SDS011;61600;48.126;11.542;2023-09-12T13:53:03;6.82;;;4.55;;
73382;SDS011;61600;48.126;11.542;2023-09-12T13:55:30;7.63;;;4.45;;
73382;SDS011;61600;48.126;11.542;2023-09-12T13:57:56;6.25;;;4.13;;
73382;SDS011;61600;48.126;11.542;2023-09-12T14:00:22;8.45;;;4.45;;
73382;SDS011;61600;48.126;11.542;2023-09-12T14:02:47;4.93;;;4.40;;
73382;SDS011;61600;48.126;11.542;2023-09-12T14:05:13;6.93;;;4.53;;
73382;SDS011;61600;48.126;11.542;2023-09-12T14:07:39;9.07;;;4.97;;
73382;SDS011;61600;48.126;11.542;2023-09-12T14:10:06;7.82;;;5.13;;
73382;SDS011;61600;48.126;11.542;2023-09-12T14:12:32;8.88;;;4.95;;
73382;SDS011;61600;48.126;11.542;2023-09-12T14:14:58;7.60;;;4.65;;
73382;SDS011;61600;48.126;11.542;2023-09-12T14:17:24;8.30;;;4.70;;
73382;SDS011;61600;48.126;11.542;2023-09-12T14:19:50;5.97;;;4.78;;
73382;SDS011;61600;48.126;11.542;2023-09-12T14:22:16;9.55;;;5.30;;
73382;SDS011;61600;48.126;11.542;2023-09-12T14:24:42;6.10;;;4.57;;
73382;SDS011;61600;48.126;11.542;2023-09-12T14:27:07;7.70;;;5.35;;
73382;SDS011;61600;48.126;11.542;2023-09-12T14:29:33;8.30;;;4.82;;
73382;SDS011;61600;48.126;11.542;2023-09-12T14:31:59;9.07;;;5.05;;
73382;SDS011;61600;48.126;11.542;2023-09-12T14:34:25;7.07;;;5.00;;
73382;SDS011;61600;48.126;11.542;2023-09-12T14:39:23;8.55;;;5.13;;
73382;SDS011;61600;48.126;11.542;2023-09-12T14:41:50;6.80;;;4.60;;
73382;SDS011;61600;48.126;11.542;2023-09-12T14:44:23;9.68;;;5.75;;
73382;SDS011;61600;48.126;11.542;2023-09-12T14:46:52;11.07;;;5.63;;
73382;SDS011;61600;48.126;11.542;2023-09-12T14:49:19;11.45;;;5.22;;
73382;SDS011;61600;48.126;11.542;2023-09-12T14:51:45;7.10;;;5.13;;
73382;SDS011;61600;48.126;11.542;2023-09-12T14:54:12;10.18;;;5.10;;
73382;SDS011;61600;48.126;11.542;2023-09-12T14:56:38;7.70;;;5.13;;
73382;SDS011;61600;48.126;11.542;2023-09-12T14:59:04;9.32;;;5.57;;
73382;SDS011;61600;48.126;11.542;2023-09-12T15:01:31;8.07;;;5.30;;
73382;SDS011;61600;48.126;11.542;2023-09-12T15:04:00;6.90;;;4.85;;
73382;SDS011;61600;48.126;11.542;2023-09-12T15:06:27;6.28;;;4.93;;
73382;SDS011;61600;48.126;11.542;2023-09-12T15:08:53;7.57;;;5.40;;